Time,TemperatureF,DewpointF,PressureIn,WindDirection,WindDirectionDegrees,WindSpeedMPH,WindSpeedGustMPH,Humidity,HourlyPrecipIn,Conditions,Clouds,dailyrainin,SolarRadiationWatts/m^2,SoftwareType,DateUTC
2013-05-08 00:02:00,60.0,60.0,-100.00,NE,55,3.0,7.0,100,0.12,,,0.97,0.000000,,2013-05-08 04:02:00,
2013-05-08 00:43:00,59.0,59.0,-100.00,SE,145,11.0,17.0,100,0.31,,,1.27,0.000000,,2013-05-08 04:43:00,
2013-05-08 00:53:00,59.0,59.0,-100.00,SE,145,11.0,17.0,100,0.31,,,1.27,0.000000,,2013-05-08 04:53:00,
2013-05-08 01:02:00,59.0,59.0,-100.00,SE,145,11.0,17.0,100,0.31,,,1.27,0.000000,,2013-05-08 05:02:00,
2013-05-08 01:12:00,59.0,59.0,-100.00,SE,145,11.0,17.0,100,0.31,,,1.27,0.000000,,2013-05-08 05:12:00,
2013-05-08 01:32:00,56.0,56.0,-100.00,NE,45,4.0,11.0,100,0.15,,,1.42,0.000000,,2013-05-08 05:32:00,
2013-05-08 01:42:00,56.0,56.0,-100.00,NE,45,4.0,11.0,100,0.15,,,1.42,0.000000,,2013-05-08 05:42:00,
2013-05-08 01:52:00,56.0,56.0,-100.00,NE,45,4.0,11.0,100,0.15,,,1.42,0.000000,,2013-05-08 05:52:00,
2013-05-08 02:02:00,56.0,56.0,-100.00,NE,45,4.0,11.0,100,0.15,,,1.42,0.000000,,2013-05-08 06:02:00,
2013-05-08 02:12:00,56.0,56.0,-100.00,NE,45,4.0,11.0,100,0.15,,,1.42,0.000000,,2013-05-08 06:12:00,
2013-05-08 02:42:00,55.0,55.0,-100.00,ENE,69,2.0,5.0,100,0.00,,,1.42,0.000000,,2013-05-08 06:42:00,
2013-05-08 02:52:00,55.0,55.0,-100.00,ENE,69,2.0,5.0,100,0.00,,,1.42,0.000000,,2013-05-08 06:52:00,
2013-05-08 03:02:00,55.0,55.0,-100.00,ENE,69,2.0,5.0,100,0.00,,,1.42,0.000000,,2013-05-08 07:02:00,
2013-05-08 03:11:00,55.0,55.0,-100.00,ENE,69,2.0,5.0,100,0.00,,,1.42,0.000000,,2013-05-08 07:11:00,
2013-05-08 03:42:00,53.0,53.0,-100.00,NE,44,2.0,4.0,100,0.00,,,1.42,0.000000,,2013-05-08 07:42:00,
2013-05-08 03:52:00,53.0,53.0,-100.00,NE,44,2.0,4.0,100,0.00,,,1.42,0.000000,,2013-05-08 07:52:00,
2013-05-08 04:02:00,53.0,53.0,-100.00,NE,44,2.0,4.0,100,0.00,,,1.42,0.000000,,2013-05-08 08:02:00,
2013-05-08 04:12:00,53.0,53.0,-100.00,NE,44,2.0,4.0,100,0.00,,,1.42,0.000000,,2013-05-08 08:12:00,
2013-05-08 04:32:00,53.0,53.0,-100.00,WNW,291,2.0,4.0,100,0.01,,,1.43,0.000000,,2013-05-08 08:32:00,
2013-05-08 04:43:00,53.0,53.0,-100.00,WNW,291,2.0,4.0,100,0.01,,,1.43,0.000000,,2013-05-08 08:43:00,
2013-05-08 04:52:00,53.0,53.0,-100.00,WNW,291,2.0,4.0,100,0.01,,,1.43,0.000000,,2013-05-08 08:52:00,
2013-05-08 05:02:00,53.0,53.0,-100.00,WNW,291,2.0,4.0,100,0.01,,,1.43,0.000000,,2013-05-08 09:02:00,
2013-05-08 05:11:00,53.0,53.0,-100.00,WNW,291,2.0,4.0,100,0.01,,,1.43,0.000000,,2013-05-08 09:11:00,
2013-05-08 05:42:00,53.0,53.0,-100.00,NNW,333,1.0,3.0,100,0.00,,,1.43,0.000000,,2013-05-08 09:42:00,
2013-05-08 05:53:00,53.0,53.0,-100.00,NNW,333,1.0,3.0,100,0.00,,,1.43,0.000000,,2013-05-08 09:53:00,
2013-05-08 06:02:00,53.0,53.0,-100.00,NNW,333,1.0,3.0,100,0.00,,,1.43,0.000000,,2013-05-08 10:02:00,
2013-05-08 06:12:00,53.0,53.0,-100.00,NNW,333,1.0,3.0,100,0.00,,,1.43,0.000000,,2013-05-08 10:12:00,
2013-05-08 06:33:00,51.0,51.0,-100.00,NW,316,1.0,4.0,100,0.00,,,1.43,1.000000,,2013-05-08 10:33:00,
2013-05-08 06:42:00,51.0,51.0,-100.00,NW,316,1.0,4.0,100,0.00,,,1.43,1.000000,,2013-05-08 10:42:00,
2013-05-08 06:53:00,51.0,51.0,-100.00,NW,316,1.0,4.0,100,0.00,,,1.43,1.000000,,2013-05-08 10:53:00,
2013-05-08 07:02:00,51.0,51.0,-100.00,NW,316,1.0,4.0,100,0.00,,,1.43,1.000000,,2013-05-08 11:02:00,
2013-05-08 07:11:00,51.0,51.0,-100.00,NW,316,1.0,4.0,100,0.00,,,1.43,1.000000,,2013-05-08 11:11:00,
2013-05-08 07:42:00,54.0,54.0,-100.00,South,184,1.0,2.0,100,0.00,,,1.43,60.000000,,2013-05-08 11:42:00,
2013-05-08 07:52:00,54.0,54.0,-100.00,South,184,1.0,2.0,100,0.00,,,1.43,60.000000,,2013-05-08 11:52:00,
2013-05-08 08:02:00,54.0,54.0,-100.00,South,184,1.0,2.0,100,0.00,,,1.43,60.000000,,2013-05-08 12:02:00,
2013-05-08 08:11:00,54.0,54.0,-100.00,South,184,1.0,2.0,100,0.00,,,1.43,60.000000,,2013-05-08 12:11:00,
2013-05-08 09:32:00,61.0,60.0,-100.00,SW,220,3.0,5.0,95,-99.99,,,1.43,236.000000,,2013-05-08 13:32:00,
2013-05-08 09:42:00,61.0,60.0,-100.00,SW,220,3.0,5.0,95,-99.99,,,1.43,236.000000,,2013-05-08 13:42:00,
2013-05-08 09:52:00,61.0,60.0,-100.00,SW,220,3.0,5.0,95,-99.99,,,1.43,236.000000,,2013-05-08 13:52:00,
2013-05-08 10:02:00,61.0,60.0,-100.00,SW,220,3.0,5.0,95,-99.99,,,1.43,236.000000,,2013-05-08 14:02:00,
2013-05-08 10:11:00,61.0,60.0,-100.00,SW,220,3.0,5.0,95,-99.99,,,1.43,236.000000,,2013-05-08 14:11:00,
2013-05-08 10:42:00,64.0,61.0,-100.00,North,8,3.0,5.0,91,0.00,,,1.43,346.000000,,2013-05-08 14:42:00,
2013-05-08 10:52:00,64.0,61.0,-100.00,North,8,3.0,5.0,91,0.00,,,1.43,346.000000,,2013-05-08 14:52:00,
2013-05-08 11:02:00,64.0,61.0,-100.00,North,8,3.0,5.0,91,0.00,,,1.43,346.000000,,2013-05-08 15:02:00,
2013-05-08 11:11:00,64.0,61.0,-100.00,North,8,3.0,5.0,91,0.00,,,1.43,346.000000,,2013-05-08 15:11:00,
2013-05-08 11:42:00,65.0,58.0,-100.00,WNW,293,2.0,5.0,77,0.00,,,1.34,364.000000,,2013-05-08 15:42:00,
2013-05-08 11:53:00,65.0,58.0,-100.00,WNW,293,2.0,5.0,77,0.00,,,1.34,364.000000,,2013-05-08 15:53:00,
2013-05-08 12:03:00,65.0,58.0,-100.00,WNW,293,2.0,5.0,77,0.00,,,1.34,364.000000,,2013-05-08 16:03:00,
2013-05-08 12:12:00,65.0,58.0,-100.00,WNW,293,2.0,5.0,77,0.00,,,1.34,364.000000,,2013-05-08 16:12:00,
2013-05-08 12:42:00,68.0,56.0,-100.00,SSW,212,4.0,7.0,66,0.00,,,-99.99,530.000000,,2013-05-08 16:42:00,
2013-05-08 12:52:00,68.0,56.0,-100.00,SSW,212,4.0,7.0,66,0.00,,,-99.99,530.000000,,2013-05-08 16:52:00,
2013-05-08 13:02:00,68.0,56.0,-100.00,SSW,212,4.0,7.0,66,0.00,,,-99.99,530.000000,,2013-05-08 17:02:00,
2013-05-08 13:12:00,68.0,56.0,-100.00,SSW,212,4.0,7.0,66,0.00,,,-99.99,530.000000,,2013-05-08 17:12:00,
2013-05-08 13:52:00,68.0,52.0,-100.00,NNW,346,4.0,8.0,56,0.00,,,-99.99,598.000000,,2013-05-08 17:52:00,
2013-05-08 14:02:00,68.0,52.0,-100.00,NNW,346,4.0,8.0,56,0.00,,,-99.99,598.000000,,2013-05-08 18:02:00,
2013-05-08 14:12:00,68.0,52.0,-100.00,NNW,346,4.0,8.0,56,0.00,,,-99.99,598.000000,,2013-05-08 18:12:00,
2013-05-08 14:42:00,69.0,52.0,-100.00,SE,128,3.0,6.0,55,0.00,,,0.87,455.000000,,2013-05-08 18:42:00,
2013-05-08 14:52:00,69.0,52.0,-100.00,SE,128,3.0,6.0,55,0.00,,,0.87,455.000000,,2013-05-08 18:52:00,
2013-05-08 15:01:00,69.0,52.0,-100.00,SE,128,3.0,6.0,55,0.00,,,0.87,455.000000,,2013-05-08 19:01:00,
2013-05-08 15:11:00,69.0,52.0,-100.00,SE,128,3.0,6.0,55,0.00,,,0.87,455.000000,,2013-05-08 19:11:00,
2013-05-08 15:32:00,70.0,53.0,-100.00,East,101,4.0,8.0,55,0.00,,,-99.99,549.000000,,2013-05-08 19:32:00,
2013-05-08 15:42:00,70.0,53.0,-100.00,East,101,4.0,8.0,55,0.00,,,-99.99,549.000000,,2013-05-08 19:42:00,
2013-05-08 15:52:00,70.0,53.0,-100.00,East,101,4.0,8.0,55,0.00,,,-99.99,549.000000,,2013-05-08 19:52:00,
2013-05-08 16:02:00,70.0,53.0,-100.00,East,101,4.0,8.0,55,0.00,,,-99.99,549.000000,,2013-05-08 20:02:00,
2013-05-08 16:11:00,70.0,53.0,-100.00,East,101,4.0,8.0,55,0.00,,,-99.99,549.000000,,2013-05-08 20:11:00,
2013-05-08 16:42:00,65.0,54.0,-100.00,SW,218,4.0,14.0,67,0.00,,,0.79,197.000000,,2013-05-08 20:42:00,
2013-05-08 16:52:00,65.0,54.0,-100.00,SW,218,4.0,14.0,67,0.00,,,0.79,197.000000,,2013-05-08 20:52:00,
2013-05-08 17:02:00,65.0,54.0,-100.00,SW,218,4.0,14.0,67,0.00,,,0.79,197.000000,,2013-05-08 21:02:00,
2013-05-08 17:12:00,65.0,54.0,-100.00,SW,218,4.0,14.0,67,0.00,,,0.79,197.000000,,2013-05-08 21:12:00,
2013-05-08 17:33:00,62.0,53.0,-100.00,SSW,205,8.0,15.0,72,0.00,,,0.76,167.000000,,2013-05-08 21:33:00,
2013-05-08 17:43:00,62.0,53.0,-100.00,SSW,205,8.0,15.0,72,0.00,,,0.76,167.000000,,2013-05-08 21:43:00,
2013-05-08 17:53:00,62.0,53.0,-100.00,SSW,205,8.0,15.0,72,0.00,,,0.76,167.000000,,2013-05-08 21:53:00,
2013-05-08 18:03:00,62.0,53.0,-100.00,SSW,205,8.0,15.0,72,0.00,,,0.76,167.000000,,2013-05-08 22:03:00,
2013-05-08 18:12:00,62.0,53.0,-100.00,SSW,205,8.0,15.0,72,0.00,,,0.76,167.000000,,2013-05-08 22:12:00,
2013-05-08 18:33:00,62.0,53.0,-100.00,South,191,8.0,11.0,73,0.00,,,0.70,185.000000,,2013-05-08 22:33:00,
2013-05-08 18:42:00,62.0,53.0,-100.00,South,191,8.0,11.0,73,0.00,,,0.70,185.000000,,2013-05-08 22:42:00,
2013-05-08 18:53:00,62.0,53.0,-100.00,South,191,8.0,11.0,73,0.00,,,0.70,185.000000,,2013-05-08 22:53:00,
2013-05-08 19:02:00,62.0,53.0,-100.00,South,191,8.0,11.0,73,0.00,,,0.70,185.000000,,2013-05-08 23:02:00,
2013-05-08 19:12:00,62.0,53.0,-100.00,South,191,8.0,11.0,73,0.00,,,0.70,185.000000,,2013-05-08 23:12:00,
2013-05-08 19:33:00,61.0,54.0,-100.00,SSW,205,4.0,10.0,77,0.00,,,0.65,151.000000,,2013-05-08 23:33:00,
2013-05-08 19:42:00,61.0,54.0,-100.00,SSW,205,4.0,10.0,77,0.00,,,0.65,151.000000,,2013-05-08 23:42:00,
2013-05-08 19:53:00,61.0,54.0,-100.00,SSW,205,4.0,10.0,77,0.00,,,0.65,151.000000,,2013-05-08 23:53:00,
2013-05-08 20:02:00,61.0,54.0,-100.00,SSW,205,4.0,10.0,77,0.00,,,0.65,151.000000,,2013-05-09 00:02:00,
2013-05-08 20:12:00,61.0,54.0,-100.00,SSW,205,4.0,10.0,77,0.00,,,0.65,151.000000,,2013-05-09 00:12:00,
2013-05-08 21:32:00,54.0,54.0,-100.00,NW,315,2.0,5.0,100,-99.99,,,0.63,0.000000,,2013-05-09 01:32:00,
2013-05-08 21:42:00,54.0,54.0,-100.00,NW,315,2.0,5.0,100,-99.99,,,0.63,0.000000,,2013-05-09 01:42:00,
2013-05-08 21:53:00,54.0,54.0,-100.00,NW,315,2.0,5.0,100,-99.99,,,0.63,0.000000,,2013-05-09 01:53:00,
2013-05-08 22:02:00,54.0,54.0,-100.00,NW,315,2.0,5.0,100,-99.99,,,0.63,0.000000,,2013-05-09 02:02:00,
2013-05-08 22:12:00,54.0,54.0,-100.00,NW,315,2.0,5.0,100,-99.99,,,0.63,0.000000,,2013-05-09 02:12:00,
2013-05-08 23:02:00,53.0,53.0,-100.00,SE,138,3.0,4.0,100,0.00,,,0.59,0.000000,,2013-05-09 03:02:00,
2013-05-08 23:11:00,53.0,53.0,-100.00,SE,138,3.0,4.0,100,0.00,,,0.59,0.000000,,2013-05-09 03:11:00,
2013-05-08 23:13:00,52.0,52.0,-100.00,SW,229,0.0,4.0,100,0.00,,,0.47,0.000000,,2013-05-09 03:13:00,
2013-05-08 23:43:00,52.0,52.0,-100.00,SW,229,0.0,4.0,100,0.00,,,0.47,0.000000,,2013-05-09 03:43:00,
2013-05-08 23:53:00,52.0,52.0,-100.00,SW,229,0.0,4.0,100,0.00,,,0.47,0.000000,,2013-05-09 03:53:00,